createdAt,value
2023-03-12T00:02:08.891Z,10.60
2023-03-12T00:04:36.275Z,9.25
2023-03-12T00:07:06.388Z,9.35
2023-03-12T00:09:38.601Z,9.18
2023-03-12T00:12:06.469Z,10.88
2023-03-12T00:14:33.260Z,11.15
2023-03-12T00:16:59.922Z,11.00
2023-03-12T00:19:26.594Z,10.52
2023-03-12T00:21:53.147Z,9.90
2023-03-12T00:24:19.696Z,9.45
2023-03-12T00:26:46.448Z,10.48
2023-03-12T00:29:13.077Z,9.38
2023-03-12T00:31:39.771Z,8.95
2023-03-12T00:34:06.589Z,8.95
2023-03-12T00:36:33.536Z,8.65
2023-03-12T00:39:01.391Z,8.27
2023-03-12T00:41:28.701Z,9.18
2023-03-12T00:43:55.324Z,10.43
2023-03-12T00:46:22.343Z,9.73
2023-03-12T00:48:49.227Z,8.95
2023-03-12T00:51:15.972Z,7.90
2023-03-12T00:53:42.753Z,7.63
2023-03-12T00:56:09.472Z,7.32
2023-03-12T00:58:36.860Z,7.57
2023-03-12T01:01:05.641Z,7.55
2023-03-12T01:03:32.426Z,6.95
2023-03-12T01:05:59.094Z,7.47
2023-03-12T01:08:25.685Z,6.63
2023-03-12T01:10:52.671Z,7.43
2023-03-12T01:13:19.866Z,8.00
2023-03-12T01:15:46.406Z,8.13
2023-03-12T01:18:13.202Z,7.88
2023-03-12T01:20:40.997Z,7.85
2023-03-12T01:23:07.888Z,7.80
2023-03-12T01:25:35.995Z,8.15
2023-03-12T01:28:02.586Z,8.07
2023-03-12T01:30:30.230Z,7.30
2023-03-12T01:32:57.034Z,8.15
2023-03-12T01:35:24.258Z,8.32
2023-03-12T01:37:50.960Z,8.13
2023-03-12T01:40:20.342Z,7.97
2023-03-12T01:42:55.100Z,7.85
2023-03-12T01:45:58.949Z,8.80
2023-03-12T01:48:28.027Z,7.72
2023-03-12T01:50:55.379Z,7.82
2023-03-12T01:53:22.975Z,7.85
2023-03-12T01:55:50.528Z,7.65
2023-03-12T01:58:17.844Z,7.80
2023-03-12T02:00:45.140Z,9.52
2023-03-12T02:03:13.840Z,8.05
2023-03-12T02:05:54.646Z,7.82
2023-03-12T02:08:23.840Z,8.00
2023-03-12T02:10:50.788Z,8.35
2023-03-12T02:13:18.312Z,7.97
2023-03-12T02:15:47.592Z,8.05
2023-03-12T02:18:18.207Z,8.02
2023-03-12T02:20:48.256Z,8.27
2023-03-12T02:23:31.483Z,8.60
2023-03-12T02:26:00.537Z,8.52
2023-03-12T02:28:29.381Z,8.75
2023-03-12T02:31:03.492Z,8.00
2023-03-12T02:33:31.379Z,7.63
2023-03-12T02:35:58.204Z,8.00
2023-03-12T02:38:39.932Z,8.73
2023-03-12T02:41:36.336Z,8.07
2023-03-12T02:44:14.471Z,7.85
2023-03-12T02:46:47.081Z,8.43
2023-03-12T02:49:15.336Z,7.75
2023-03-12T02:51:43.220Z,8.20
2023-03-12T02:54:11.453Z,8.25
2023-03-12T02:56:38.849Z,7.88
2023-03-12T02:59:06.683Z,7.90
2023-03-12T03:01:37.292Z,7.32
2023-03-12T03:04:07.071Z,6.88
2023-03-12T03:06:35.323Z,7.72
2023-03-12T03:09:02.601Z,7.47
2023-03-12T03:11:29.264Z,7.60
2023-03-12T03:13:57.039Z,7.15
2023-03-12T03:16:24.800Z,6.80
2023-03-12T03:18:52.160Z,6.63
2023-03-12T03:21:19.102Z,6.30
2023-03-12T03:23:48.392Z,6.40
2023-03-12T03:26:16.841Z,6.93
2023-03-12T03:31:09.807Z,6.50
2023-03-12T03:33:39.645Z,6.22
2023-03-12T03:36:09.516Z,6.68
2023-03-12T03:38:42.473Z,7.22
2023-03-12T03:41:09.112Z,6.45
2023-03-12T03:43:41.168Z,6.40
2023-03-12T03:46:11.520Z,6.15
2023-03-12T03:48:41.600Z,7.03
2023-03-12T03:51:10.940Z,6.60
2023-03-12T03:53:41.530Z,5.97
2023-03-12T03:56:14.261Z,6.47
2023-03-12T03:58:46.675Z,6.85
2023-03-12T04:01:14.701Z,7.35
2023-03-12T04:03:42.453Z,6.53
2023-03-12T04:06:09.735Z,6.22
2023-03-12T04:08:42.672Z,7.32
2023-03-12T04:11:15.938Z,7.15
2023-03-12T04:16:10.932Z,6.55
2023-03-12T04:18:38.096Z,6.40
2023-03-12T04:21:07.696Z,7.05
2023-03-12T04:23:35.714Z,6.25
2023-03-12T04:26:03.050Z,6.10
2023-03-12T04:28:30.308Z,5.40
2023-03-12T04:31:01.545Z,5.60
2023-03-12T04:33:40.047Z,6.20
2023-03-12T04:36:08.456Z,5.75
2023-03-12T04:38:37.207Z,5.88
2023-03-12T04:41:08.099Z,5.97
2023-03-12T04:43:37.246Z,6.05
2023-03-12T04:46:04.927Z,5.30
2023-03-12T04:48:31.635Z,5.82
2023-03-12T04:50:58.316Z,5.10
2023-03-12T04:53:25.764Z,5.63
2023-03-12T04:55:52.858Z,5.43
2023-03-12T04:58:20.173Z,5.55
2023-03-12T05:00:48.296Z,5.15
2023-03-12T05:03:15.862Z,5.45
2023-03-12T05:05:44.000Z,4.90
2023-03-12T05:08:10.713Z,4.97
2023-03-12T05:10:37.869Z,4.88
2023-03-12T05:13:04.400Z,5.15
2023-03-12T05:15:31.058Z,5.05
2023-03-12T05:17:57.864Z,5.65
2023-03-12T05:20:25.081Z,4.80
2023-03-12T05:22:52.132Z,4.80
2023-03-12T05:25:18.924Z,5.18
2023-03-12T05:27:45.577Z,5.22
2023-03-12T05:30:13.297Z,5.15
2023-03-12T05:32:40.297Z,4.60
2023-03-12T05:35:07.164Z,4.35
2023-03-12T05:37:34.278Z,4.60
2023-03-12T05:40:00.882Z,4.47
2023-03-12T05:42:28.669Z,4.57
2023-03-12T05:44:56.735Z,4.85
2023-03-12T05:47:23.332Z,5.00
2023-03-12T05:49:50.528Z,4.85
2023-03-12T05:52:17.144Z,4.47
2023-03-12T05:54:43.757Z,4.22
2023-03-12T05:57:10.698Z,4.72
2023-03-12T05:59:37.701Z,4.57
2023-03-12T06:02:05.530Z,4.70
2023-03-12T06:04:33.275Z,4.18
2023-03-12T06:07:00.337Z,3.78
2023-03-12T06:09:27.216Z,4.38
2023-03-12T06:11:53.880Z,3.95
2023-03-12T06:14:20.862Z,3.70
2023-03-12T06:16:48.309Z,3.35
2023-03-12T06:19:15.116Z,3.25
2023-03-12T06:21:44.011Z,3.60
2023-03-12T06:24:11.637Z,3.15
2023-03-12T06:26:43.418Z,3.15
2023-03-12T06:29:10.069Z,3.72
2023-03-12T06:31:38.876Z,3.22
2023-03-12T06:34:06.146Z,2.97
2023-03-12T06:36:32.824Z,3.30
2023-03-12T06:38:59.445Z,3.03
2023-03-12T06:41:26.071Z,3.05
2023-03-12T06:43:52.712Z,3.10
2023-03-12T06:46:21.845Z,3.25
2023-03-12T06:48:48.788Z,2.92
2023-03-12T06:51:16.570Z,3.30
2023-03-12T06:53:44.742Z,3.17
2023-03-12T06:56:12.311Z,3.22
2023-03-12T06:58:39.169Z,3.60
2023-03-12T07:01:05.861Z,3.22
2023-03-12T07:03:32.649Z,3.17
2023-03-12T07:05:59.849Z,2.63
2023-03-12T07:08:30.881Z,2.58
2023-03-12T07:11:01.223Z,2.50
2023-03-12T07:13:28.144Z,2.60
2023-03-12T07:15:54.755Z,2.40
2023-03-12T07:18:21.350Z,2.58
2023-03-12T07:20:47.976Z,2.55
2023-03-12T07:23:14.980Z,2.60
2023-03-12T07:25:42.874Z,2.95
2023-03-12T07:28:10.631Z,2.33
2023-03-12T07:30:38.261Z,2.60
2023-03-12T07:33:07.516Z,2.33
2023-03-12T07:35:34.296Z,2.40
2023-03-12T07:38:02.088Z,2.63
2023-03-12T07:40:29.112Z,2.30
2023-03-12T07:42:55.927Z,2.47
2023-03-12T07:45:23.404Z,2.85
2023-03-12T07:47:50.439Z,3.10
2023-03-12T07:50:18.351Z,2.65
2023-03-12T07:52:46.797Z,2.53
2023-03-12T07:55:13.950Z,2.78
2023-03-12T07:57:40.777Z,2.35
2023-03-12T08:00:10.298Z,2.55
2023-03-12T08:02:40.329Z,2.03
2023-03-12T08:05:07.675Z,2.47
2023-03-12T08:07:35.632Z,2.25
2023-03-12T08:10:05.896Z,2.20
2023-03-12T08:12:32.867Z,2.35
2023-03-12T08:14:59.673Z,3.35
2023-03-12T08:17:26.413Z,2.47
2023-03-12T08:19:52.966Z,3.03
2023-03-12T08:22:19.509Z,2.38
2023-03-12T08:24:46.465Z,2.90
2023-03-12T08:27:13.364Z,2.50
2023-03-12T08:29:41.109Z,2.13
2023-03-12T08:32:10.469Z,1.98
2023-03-12T08:34:37.464Z,2.50
2023-03-12T08:37:04.248Z,2.63
2023-03-12T08:39:30.969Z,2.80
2023-03-12T08:41:58.556Z,2.72
2023-03-12T08:44:25.777Z,2.40
2023-03-12T08:46:52.931Z,2.42
2023-03-12T08:49:21.460Z,2.33
2023-03-12T08:51:48.343Z,3.20
2023-03-12T08:54:15.282Z,2.35
2023-03-12T08:56:43.536Z,3.42
2023-03-12T08:59:10.879Z,2.08
2023-03-12T09:01:38.116Z,2.70
2023-03-12T09:04:05.788Z,3.03
2023-03-12T09:06:35.221Z,2.78
2023-03-12T09:09:05.709Z,2.55
2023-03-12T09:11:33.803Z,3.58
2023-03-12T09:16:47.733Z,3.17
2023-03-12T09:19:14.442Z,3.53
2023-03-12T09:21:41.160Z,3.47
2023-03-12T09:24:08.488Z,3.40
2023-03-12T09:26:35.075Z,3.40
2023-03-12T09:29:01.740Z,3.22
2023-03-12T09:31:28.352Z,3.33
2023-03-12T09:33:55.011Z,3.20
2023-03-12T09:36:21.611Z,3.38
2023-03-12T09:38:48.207Z,3.08
2023-03-12T09:41:25.421Z,3.08
2023-03-12T09:43:56.881Z,3.15
2023-03-12T09:46:58.028Z,3.10
2023-03-12T09:49:34.251Z,3.33
2023-03-12T09:52:08.149Z,3.53
2023-03-12T09:55:02.582Z,3.50
2023-03-12T09:57:32.485Z,3.45
2023-03-12T09:59:59.511Z,3.40
2023-03-12T10:02:38.250Z,4.10
2023-03-12T10:05:19.949Z,3.28
2023-03-12T10:07:56.834Z,4.60
2023-03-12T10:10:57.117Z,3.58
2023-03-12T10:13:26.768Z,4.40
2023-03-12T10:18:48.504Z,3.63
2023-03-12T10:21:29.394Z,4.45
2023-03-12T10:24:11.234Z,4.50
2023-03-12T10:26:43.009Z,4.40
2023-03-12T10:29:18.614Z,5.35
2023-03-12T10:31:59.185Z,4.25
2023-03-12T10:34:35.207Z,4.22
2023-03-12T10:37:12.430Z,5.03
2023-03-12T10:39:40.345Z,4.72
2023-03-12T10:42:16.186Z,4.95
2023-03-12T10:44:43.132Z,5.53
2023-03-12T10:47:39.245Z,5.47
2023-03-12T10:50:24.347Z,6.57
2023-03-12T10:52:53.186Z,5.85
2023-03-12T10:55:20.481Z,6.15
2023-03-12T10:57:47.479Z,8.23
2023-03-12T11:00:24.219Z,6.82
2023-03-12T11:03:19.782Z,7.13
2023-03-12T11:05:49.350Z,7.03
2023-03-12T11:10:58.255Z,7.20
2023-03-12T11:13:33.880Z,7.07
2023-03-12T11:16:17.099Z,8.07
2023-03-12T11:19:05.512Z,8.10
2023-03-12T11:21:37.363Z,8.02
2023-03-12T11:24:15.246Z,9.13
2023-03-12T11:26:58.963Z,8.57
2023-03-12T11:29:31.366Z,8.93
2023-03-12T11:32:18.449Z,8.38
2023-03-12T11:34:49.446Z,8.25
2023-03-12T11:37:27.554Z,9.35
2023-03-12T11:40:36.526Z,9.10
2023-03-12T11:43:16.735Z,8.73
2023-03-12T11:46:08.333Z,10.07
2023-03-12T11:48:59.947Z,8.90
2023-03-12T11:51:46.813Z,9.95
2023-03-12T11:54:32.605Z,9.35
2023-03-12T11:57:06.188Z,9.70
2023-03-12T12:00:00.626Z,9.60
2023-03-12T12:03:08.785Z,10.07
2023-03-12T12:05:43.562Z,10.10
2023-03-12T12:08:35.693Z,11.18
2023-03-12T12:11:20.172Z,11.70
2023-03-12T12:13:52.569Z,12.23
2023-03-12T12:16:34.877Z,11.00
2023-03-12T12:19:55.200Z,12.23
2023-03-12T12:22:56.455Z,11.65
2023-03-12T12:25:41.146Z,11.52
2023-03-12T12:28:27.011Z,11.88
2023-03-12T12:30:58.639Z,13.98
2023-03-12T12:33:45.807Z,14.50
2023-03-12T12:36:14.221Z,14.77
2023-03-12T12:38:47.157Z,15.23
2023-03-12T12:41:21.179Z,16.98
2023-03-12T12:43:50.427Z,16.48
2023-03-12T12:46:21.173Z,18.25
2023-03-12T12:49:06.532Z,18.75
2023-03-12T12:51:39.447Z,20.08
2023-03-12T12:54:25.539Z,21.08
2023-03-12T12:57:07.406Z,20.38
2023-03-12T12:59:43.346Z,20.25
2023-03-12T13:02:27.733Z,23.73
2023-03-12T13:04:58.864Z,22.20
2023-03-12T13:07:27.872Z,23.65
2023-03-12T13:09:59.432Z,25.17
2023-03-12T13:12:36.022Z,23.83
2023-03-12T13:15:28.256Z,25.52
2023-03-12T13:18:13.571Z,23.85
2023-03-12T13:21:05.902Z,24.55
2023-03-12T13:23:47.775Z,24.83
2023-03-12T13:26:31.827Z,24.58
2023-03-12T13:29:33.976Z,25.98
2023-03-12T13:32:00.690Z,27.02
2023-03-12T13:34:28.227Z,25.58
2023-03-12T13:37:01.480Z,27.83
2023-03-12T13:39:34.727Z,26.92
2023-03-12T13:42:20.986Z,28.90
2023-03-12T13:44:47.531Z,29.90
2023-03-12T13:47:30.311Z,28.95
2023-03-12T13:49:56.880Z,28.75
2023-03-12T13:52:31.093Z,30.83
2023-03-12T13:55:03.113Z,30.65
2023-03-12T13:57:34.341Z,28.83
2023-03-12T14:00:05.560Z,28.00
2023-03-12T14:02:38.152Z,29.55
2023-03-12T14:05:16.484Z,30.00
2023-03-12T14:07:57.668Z,29.35
2023-03-12T14:10:36.298Z,28.77
2023-03-12T14:13:18.916Z,28.67
2023-03-12T14:16:11.747Z,28.73
2023-03-12T14:18:43.395Z,28.40
2023-03-12T14:21:14.914Z,28.30
2023-03-12T14:23:48.205Z,27.50
2023-03-12T14:26:25.828Z,29.10
2023-03-12T14:29:00.311Z,28.88
2023-03-12T14:31:30.021Z,30.55
2023-03-12T14:36:50.935Z,30.15
2023-03-12T14:39:31.734Z,32.75
2023-03-12T14:42:07.791Z,31.15
2023-03-12T14:44:37.091Z,32.67
2023-03-12T14:47:11.461Z,31.00
2023-03-12T14:49:45.932Z,31.50
2023-03-12T14:52:14.004Z,30.17
2023-03-12T14:54:56.420Z,32.38
2023-03-12T14:57:24.625Z,30.92
2023-03-12T14:59:56.993Z,31.33
2023-03-12T15:02:24.419Z,29.55
2023-03-12T15:04:55.236Z,29.98
2023-03-12T15:07:29.393Z,31.10
2023-03-12T15:09:56.299Z,28.52
2023-03-12T15:12:25.761Z,30.60
2023-03-12T15:15:06.895Z,29.50
2023-03-12T15:17:34.814Z,27.50
2023-03-12T15:20:09.533Z,28.35
2023-03-12T15:22:37.208Z,27.60
2023-03-12T15:25:22.178Z,28.17
2023-03-12T15:27:49.539Z,28.13
2023-03-12T15:30:26.051Z,26.40
2023-03-12T15:33:17.884Z,27.48
2023-03-12T15:36:12.358Z,26.45
2023-03-12T15:38:46.152Z,27.52
2023-03-12T15:41:21.120Z,26.80
2023-03-12T15:44:00.068Z,25.77
2023-03-12T15:46:28.305Z,25.80
2023-03-12T15:48:57.750Z,25.40
2023-03-12T15:51:36.652Z,25.60
2023-03-12T15:54:17.326Z,24.33
2023-03-12T15:56:44.298Z,24.60
2023-03-12T15:59:17.053Z,24.30
2023-03-12T16:01:46.156Z,24.52
2023-03-12T16:04:13.326Z,23.55
2023-03-12T16:06:42.524Z,21.63
2023-03-12T16:09:15.283Z,22.20
2023-03-12T16:11:42.759Z,21.50
2023-03-12T16:14:20.264Z,22.48
2023-03-12T16:16:47.018Z,21.35
2023-03-12T16:19:23.964Z,22.00
2023-03-12T16:21:50.718Z,21.30
2023-03-12T16:24:17.341Z,21.38
2023-03-12T16:26:59.980Z,18.85
2023-03-12T16:29:36.973Z,18.55
2023-03-12T16:32:11.582Z,18.83
2023-03-12T16:34:38.183Z,16.83
2023-03-12T16:37:04.807Z,17.55
2023-03-12T16:39:33.156Z,17.45
2023-03-12T16:42:04.035Z,16.77
2023-03-12T16:44:34.277Z,15.63
2023-03-12T16:47:01.215Z,15.07
2023-03-12T16:49:27.979Z,14.50
2023-03-12T16:51:54.552Z,12.98
2023-03-12T16:54:21.186Z,14.50
2023-03-12T16:56:48.709Z,13.60
2023-03-12T16:59:25.314Z,12.45
2023-03-12T17:01:51.997Z,13.27
2023-03-12T17:04:18.904Z,13.88
2023-03-12T17:06:45.492Z,13.13
2023-03-12T17:09:12.129Z,14.32
2023-03-12T17:11:39.213Z,14.48
2023-03-12T17:14:18.907Z,15.32
2023-03-12T17:16:45.747Z,13.68
2023-03-12T17:19:12.518Z,13.00
2023-03-12T17:21:39.485Z,13.13
2023-03-12T17:24:06.517Z,14.70
2023-03-12T17:26:33.745Z,13.93
2023-03-12T17:29:00.303Z,13.50
2023-03-12T17:31:27.069Z,14.55
2023-03-12T17:33:53.665Z,14.25
2023-03-12T17:36:20.358Z,15.15
2023-03-12T17:38:49.592Z,15.25
2023-03-12T17:41:25.863Z,14.70
2023-03-12T17:43:53.384Z,16.17
2023-03-12T17:46:23.266Z,16.45
2023-03-12T17:48:52.887Z,15.85
2023-03-12T17:51:21.011Z,15.63
2023-03-12T17:53:48.028Z,14.90
2023-03-12T17:56:17.745Z,14.57
2023-03-12T17:58:45.481Z,14.27
2023-03-12T18:01:13.543Z,13.88
2023-03-12T18:03:40.544Z,14.02
2023-03-12T18:06:07.204Z,14.30
2023-03-12T18:08:33.719Z,14.27
2023-03-12T18:11:01.664Z,13.95
2023-03-12T18:13:28.836Z,14.10
2023-03-12T18:15:57.339Z,13.82
2023-03-12T18:18:26.468Z,14.50
2023-03-12T18:20:53.754Z,13.52
2023-03-12T18:23:20.676Z,15.50
2023-03-12T18:25:47.357Z,14.55
2023-03-12T18:28:15.230Z,15.35
2023-03-12T18:30:41.966Z,15.80
2023-03-12T18:33:08.538Z,14.63
2023-03-12T18:35:35.216Z,14.18
2023-03-12T18:38:01.932Z,15.60
2023-03-12T18:40:29.357Z,15.57
2023-03-12T18:43:00.276Z,15.25
2023-03-12T18:45:27.869Z,14.88
2023-03-12T18:47:54.435Z,15.75
2023-03-12T18:50:21.645Z,15.77
2023-03-12T18:52:48.286Z,17.15
2023-03-12T18:55:15.294Z,17.20
2023-03-12T18:57:43.103Z,15.98
2023-03-12T19:00:19.744Z,17.23
2023-03-12T19:02:48.040Z,17.05
2023-03-12T19:05:14.982Z,17.30
2023-03-12T19:07:42.268Z,18.13
2023-03-12T19:10:10.238Z,17.88
2023-03-12T19:12:50.780Z,16.67
2023-03-12T19:15:19.097Z,14.45
2023-03-12T19:17:45.664Z,11.75
2023-03-12T19:20:15.794Z,11.02
2023-03-12T19:22:42.335Z,10.00
2023-03-12T19:25:09.736Z,9.00
2023-03-12T19:27:39.552Z,9.65
2023-03-12T19:30:06.745Z,7.22
2023-03-12T19:32:43.246Z,8.57
2023-03-12T19:35:14.688Z,8.18
2023-03-12T19:37:41.872Z,7.72
2023-03-12T19:40:13.213Z,7.05
2023-03-12T19:42:39.868Z,6.88
2023-03-12T19:45:06.938Z,8.57
2023-03-12T19:47:33.637Z,7.60
2023-03-12T19:50:00.735Z,7.60
2023-03-12T19:52:27.439Z,7.35
2023-03-12T19:55:03.866Z,8.00
2023-03-12T19:57:31.822Z,6.10
2023-03-12T19:59:58.485Z,6.05
2023-03-12T20:02:26.014Z,7.97
2023-03-12T20:04:56.534Z,6.28
2023-03-12T20:07:23.122Z,6.80
2023-03-12T20:09:49.853Z,5.72
2023-03-12T20:12:16.446Z,6.20
2023-03-12T20:14:43.180Z,6.95
2023-03-12T20:17:10.993Z,6.07
2023-03-12T20:19:38.655Z,6.13
2023-03-12T20:22:05.644Z,5.55
2023-03-12T20:24:35.865Z,6.13
2023-03-12T20:27:02.609Z,6.93
2023-03-12T20:29:29.255Z,7.28
2023-03-12T20:31:55.918Z,6.50
2023-03-12T20:34:23.312Z,5.68
2023-03-12T20:36:49.872Z,6.35
2023-03-12T20:39:16.545Z,5.35
2023-03-12T20:41:43.253Z,5.43
2023-03-12T20:44:09.925Z,6.47
2023-03-12T20:46:36.578Z,5.32
2023-03-12T20:49:03.183Z,6.63
2023-03-12T20:51:29.762Z,6.13
2023-03-12T20:53:57.482Z,5.65
2023-03-12T20:56:24.021Z,6.55
2023-03-12T20:58:50.662Z,5.43
2023-03-12T21:01:17.276Z,6.15
2023-03-12T21:03:43.924Z,6.70
2023-03-12T21:06:10.623Z,5.97
2023-03-12T21:08:37.180Z,7.72
2023-03-12T21:11:07.812Z,5.57
2023-03-12T21:13:34.619Z,7.22
2023-03-12T21:16:01.283Z,7.13
2023-03-12T21:18:28.934Z,6.38
2023-03-12T21:21:01.401Z,7.50
2023-03-12T21:23:28.034Z,7.50
2023-03-12T21:26:06.580Z,7.05
2023-03-12T21:28:35.072Z,8.95
2023-03-12T21:31:10.944Z,6.25
2023-03-12T21:33:37.833Z,6.90
2023-03-12T21:36:10.037Z,6.70
2023-03-12T21:38:37.983Z,6.32
2023-03-12T21:41:09.777Z,7.28
2023-03-12T21:43:36.875Z,6.85
2023-03-12T21:46:09.187Z,5.65
2023-03-12T21:48:35.960Z,5.55
2023-03-12T21:51:08.218Z,5.88
2023-03-12T21:53:35.666Z,6.78
2023-03-12T21:56:04.187Z,4.85
2023-03-12T21:58:32.418Z,5.00
2023-03-12T22:01:04.667Z,6.63
2023-03-12T22:03:31.243Z,5.75
2023-03-12T22:05:57.840Z,5.47
2023-03-12T22:08:24.517Z,5.32
2023-03-12T22:10:51.036Z,5.25
2023-03-12T22:13:20.008Z,6.93
2023-03-12T22:15:53.009Z,5.30
2023-03-12T22:18:19.740Z,5.78
2023-03-12T22:21:01.585Z,4.82
2023-03-12T22:23:28.202Z,5.28
2023-03-12T22:25:55.077Z,5.32
2023-03-12T22:28:23.274Z,5.43
2023-03-12T22:30:56.959Z,5.25
2023-03-12T22:33:23.572Z,6.15
2023-03-12T22:35:50.171Z,5.75
2023-03-12T22:38:16.734Z,5.45
2023-03-12T22:40:43.335Z,5.30
2023-03-12T22:43:09.943Z,5.60
2023-03-12T22:45:36.662Z,6.10
2023-03-12T22:48:03.568Z,7.03
2023-03-12T22:50:30.279Z,5.88
2023-03-12T22:52:56.860Z,6.07
2023-03-12T22:55:23.652Z,4.88
2023-03-12T22:57:51.777Z,5.63
2023-03-12T23:00:25.237Z,6.35
2023-03-12T23:02:51.918Z,4.82
2023-03-12T23:05:18.581Z,6.30
2023-03-12T23:07:45.202Z,6.40
2023-03-12T23:10:15.012Z,6.70
2023-03-12T23:12:41.587Z,5.93
2023-03-12T23:15:08.761Z,5.43
2023-03-12T23:17:35.605Z,5.20
2023-03-12T23:20:03.686Z,4.80
2023-03-12T23:22:30.268Z,4.78
2023-03-12T23:24:56.869Z,4.95
2023-03-12T23:27:23.453Z,5.15
2023-03-12T23:29:49.984Z,4.97
2023-03-12T23:32:16.990Z,5.15
2023-03-12T23:34:43.502Z,4.70
2023-03-12T23:37:11.515Z,5.75
2023-03-12T23:39:53.418Z,6.47
2023-03-12T23:42:20.864Z,4.80
2023-03-12T23:44:47.449Z,5.00
2023-03-12T23:47:19.230Z,5.17
2023-03-12T23:49:45.764Z,4.40
2023-03-12T23:52:12.310Z,4.40
2023-03-12T23:54:38.898Z,4.65
2023-03-12T23:57:05.636Z,5.07
2023-03-12T23:59:32.261Z,6.32
